Time;durP1;ratioP1;P1;durP2;ratioP2;P2;SDS_P1;SDS_P2;PMS_P1;PMS_P2;Temp;Humidity;BMP_temperature;BMP_pressure;BME280_temperature;BME280_humidity;BME280_pressure;Samples;Min_cycle;Max_cycle;Signal;HPM_P1;HPM_P2
2022/07/14 00:01:45;;;;;;;4.40;2.17;;;23.00;71.00;;;;;;4970473;28;20275;-66
2022/07/14 00:04:11;;;;;;;6.20;2.00;;;22.90;72.60;;;;;;4970904;28;20200;-67
2022/07/14 00:06:36;;;;;;;2.50;2.30;;;22.80;73.20;;;;;;4971010;28;20180;-68
2022/07/14 00:09:03;;;;;;;2.30;2.20;;;22.70;73.70;;;;;;4972080;28;20183;-66
2022/07/14 00:11:29;;;;;;;2.50;2.30;;;22.70;72.10;;;;;;4975618;28;20214;-66
2022/07/14 00:13:56;;;;;;;1.73;1.63;;;22.60;72.10;;;;;;4974667;28;20526;-66
2022/07/14 00:16:21;;;;;;;2.40;2.30;;;22.60;71.40;;;;;;4975293;28;20179;-68
2022/07/14 00:18:47;;;;;;;2.37;2.17;;;22.70;70.30;;;;;;4973718;28;20785;-66
2022/07/14 00:21:13;;;;;;;2.40;1.90;;;22.70;68.80;;;;;;4973980;28;20207;-67
2022/07/14 00:23:40;;;;;;;2.37;2.27;;;22.70;67.80;;;;;;4973485;28;20207;-70
2022/07/14 00:26:06;;;;;;;2.57;2.37;;;22.80;69.60;;;;;;4974157;28;20435;-68
2022/07/14 00:28:32;;;;;;;4.30;2.20;;;22.70;71.30;;;;;;4974483;28;20945;-66
2022/07/14 00:31:03;;;;;;;2.20;1.80;;;22.60;70.10;;;;;;4956759;28;20466;-66
2022/07/14 00:33:30;;;;;;;2.87;2.00;;;22.60;69.80;;;;;;4974704;28;20442;-68
2022/07/14 00:35:56;;;;;;;2.20;2.10;;;22.50;70.90;;;;;;4972179;28;20431;-68
2022/07/14 00:38:21;;;;;;;2.90;2.70;;;22.50;69.60;;;;;;4973493;28;20444;-66
2022/07/14 00:40:47;;;;;;;2.43;2.23;;;22.50;71.70;;;;;;4973915;28;20257;-66
2022/07/14 00:43:12;;;;;;;2.77;2.57;;;22.50;69.60;;;;;;4974685;28;20238;-67
2022/07/14 00:45:38;;;;;;;2.40;2.20;;;22.40;69.50;;;;;;4972278;28;20180;-68
2022/07/14 00:48:03;;;;;;;2.57;2.37;;;22.40;69.60;;;;;;4973213;28;20184;-66
2022/07/14 00:50:29;;;;;;;2.50;2.30;;;22.50;69.60;;;;;;4972870;28;20168;-67
2022/07/14 00:52:54;;;;;;;4.83;1.93;;;22.50;69.80;;;;;;4973496;28;20196;-66
2022/07/14 00:55:20;;;;;;;4.50;2.80;;;22.50;69.00;;;;;;4973275;28;20176;-66
2022/07/14 00:57:46;;;;;;;2.20;2.00;;;22.40;68.10;;;;;;4972965;28;20180;-67
2022/07/14 01:00:13;;;;;;;2.70;2.20;;;22.40;69.40;;;;;;4965634;28;20172;-67
2022/07/14 01:02:40;;;;;;;2.33;2.23;;;22.40;70.60;;;;;;4973228;28;20752;-69
2022/07/14 01:05:07;;;;;;;3.10;2.90;;;22.40;72.00;;;;;;4973044;28;20874;-68
2022/07/14 01:07:33;;;;;;;2.83;2.60;;;22.30;72.70;;;;;;4971239;28;20435;-65
2022/07/14 01:09:58;;;;;;;3.43;1.70;;;22.10;71.30;;;;;;4971370;28;20455;-67
2022/07/14 01:12:24;;;;;;;2.07;1.97;;;22.10;71.00;;;;;;4972253;28;20200;-66
2022/07/14 01:14:50;;;;;;;3.13;1.93;;;22.00;71.10;;;;;;4972213;28;21035;-65
2022/07/14 01:17:15;;;;;;;2.10;1.90;;;22.00;72.10;;;;;;4974287;28;20227;-66
2022/07/14 01:19:41;;;;;;;2.43;2.33;;;21.90;71.50;;;;;;4971082;28;20193;-69
2022/07/14 01:22:07;;;;;;;1.73;1.63;;;21.80;71.90;;;;;;4971901;28;20204;-68
2022/07/14 01:24:33;;;;;;;2.23;2.03;;;21.80;71.90;;;;;;4972136;28;20266;-67
2022/07/14 01:26:59;;;;;;;3.67;1.87;;;21.70;71.70;;;;;;4973255;28;20439;-66
2022/07/14 01:29:25;;;;;;;2.97;2.20;;;21.70;72.10;;;;;;4972365;28;20440;-66
2022/07/14 01:31:51;;;;;;;2.10;1.90;;;21.70;72.50;;;;;;4975117;28;20234;-66
2022/07/14 01:34:17;;;;;;;4.97;2.10;;;21.60;73.00;;;;;;4972576;28;20464;-67
2022/07/14 01:36:43;;;;;;;2.60;2.40;;;21.60;72.90;;;;;;4955176;28;20192;-68
2022/07/14 01:39:09;;;;;;;2.10;2.00;;;21.50;73.20;;;;;;4970790;28;20446;-66
2022/07/14 01:41:35;;;;;;;2.50;2.40;;;21.40;73.60;;;;;;4972685;28;20557;-66
2022/07/14 01:44:01;;;;;;;2.60;2.40;;;21.30;74.00;;;;;;4974019;28;20207;-66
2022/07/14 01:46:27;;;;;;;2.47;2.37;;;21.30;74.90;;;;;;4970795;28;20188;-66
2022/07/14 01:48:53;;;;;;;2.20;1.90;;;21.30;75.50;;;;;;4970954;28;20798;-66
2022/07/14 01:51:19;;;;;;;2.40;1.90;;;21.30;75.30;;;;;;4972241;28;20481;-66
2022/07/14 01:53:44;;;;;;;2.43;2.23;;;21.20;75.80;;;;;;4972778;28;20203;-66
2022/07/14 01:56:11;;;;;;;2.33;2.13;;;21.20;76.30;;;;;;4972321;28;20184;-72
2022/07/14 01:58:37;;;;;;;3.43;2.80;;;21.10;76.50;;;;;;4970907;28;21969;-69
2022/07/14 02:03:47;;;;;;;3.13;2.93;;;21.10;75.30;;;;;;4972303;28;20258;-68
2022/07/14 02:06:13;;;;;;;3.43;2.00;;;21.10;76.00;;;;;;4972040;28;20932;-70
2022/07/14 02:08:39;;;;;;;2.23;2.13;;;20.90;77.30;;;;;;4970600;28;20176;-66
2022/07/14 02:13:48;;;;;;;2.43;2.27;;;20.70;79.40;;;;;;4969097;28;20470;-70
2022/07/14 02:16:14;;;;;;;1.90;1.80;;;20.60;79.20;;;;;;4972144;28;20497;-69
2022/07/14 02:18:40;;;;;;;2.27;2.17;;;20.50;80.40;;;;;;4971106;28;20659;-69
2022/07/14 02:21:06;;;;;;;2.27;2.17;;;20.50;80.30;;;;;;4971500;28;20223;-68
2022/07/14 02:23:31;;;;;;;2.50;2.40;;;20.50;81.20;;;;;;4972195;28;20835;-66
2022/07/14 02:25:57;;;;;;;2.40;2.23;;;20.50;80.80;;;;;;4970951;28;20335;-66
2022/07/14 02:28:22;;;;;;;2.50;2.30;;;20.40;81.60;;;;;;4971455;28;20199;-66
2022/07/14 02:30:48;;;;;;;1.93;1.83;;;20.40;80.90;;;;;;4969642;28;20243;-65
2022/07/14 02:33:14;;;;;;;2.47;2.37;;;20.40;80.10;;;;;;4972224;28;20176;-66
2022/07/14 02:35:39;;;;;;;2.37;2.23;;;20.40;80.70;;;;;;4972391;28;20238;-67
2022/07/14 02:38:05;;;;;;;3.63;2.30;;;20.30;80.20;;;;;;4969599;28;20195;-68
2022/07/14 02:40:32;;;;;;;1.77;1.67;;;20.20;80.70;;;;;;4971616;28;20191;-67
2022/07/14 02:42:57;;;;;;;2.27;2.17;;;20.10;81.50;;;;;;4979882;28;20207;-66
2022/07/14 02:45:23;;;;;;;2.20;2.03;;;20.00;82.20;;;;;;4972687;28;20526;-69
2022/07/14 02:47:48;;;;;;;6.00;2.73;;;20.00;82.30;;;;;;4972720;28;20267;-68
2022/07/14 02:50:14;;;;;;;2.40;2.20;;;20.00;83.00;;;;;;4974123;28;20187;-69
2022/07/14 02:52:39;;;;;;;5.23;1.77;;;20.10;82.60;;;;;;4972199;28;20226;-68
2022/07/14 02:55:06;;;;;;;1.97;1.77;;;20.10;81.80;;;;;;4972021;28;20200;-69
2022/07/14 02:57:31;;;;;;;4.50;2.20;;;20.20;81.40;;;;;;4972279;28;20176;-66
2022/07/14 02:59:57;;;;;;;2.00;1.90;;;20.20;80.70;;;;;;4970788;28;20436;-66
2022/07/14 03:02:22;;;;;;;2.63;2.40;;;20.30;80.20;;;;;;4971427;28;20215;-66
2022/07/14 03:04:48;;;;;;;3.73;2.27;;;20.30;79.10;;;;;;4970227;28;20212;-67
2022/07/14 03:07:13;;;;;;;2.30;2.20;;;20.30;79.60;;;;;;4971734;28;20180;-67
2022/07/14 03:09:39;;;;;;;2.33;2.13;;;20.20;81.40;;;;;;4971456;28;20187;-69
2022/07/14 03:12:04;;;;;;;2.20;2.10;;;20.00;83.00;;;;;;4971838;28;20188;-66
2022/07/14 03:14:30;;;;;;;2.20;2.10;;;19.80;84.20;;;;;;4971464;28;20183;-66
2022/07/14 03:16:55;;;;;;;2.50;2.40;;;19.80;83.20;;;;;;4972153;28;20242;-66
2022/07/14 03:19:21;;;;;;;2.10;2.00;;;19.80;81.20;;;;;;4970374;28;20206;-66
2022/07/14 03:21:47;;;;;;;2.23;2.00;;;19.70;81.60;;;;;;4971327;28;20671;-69
2022/07/14 03:24:12;;;;;;;2.20;2.10;;;19.80;82.70;;;;;;4970998;28;20207;-67
2022/07/14 03:26:39;;;;;;;2.70;2.13;;;19.70;82.30;;;;;;4971145;28;20561;-70
2022/07/14 03:29:05;;;;;;;2.17;1.97;;;19.80;82.40;;;;;;4970574;28;20185;-69
2022/07/14 03:31:30;;;;;;;2.63;2.43;;;19.80;83.20;;;;;;4971287;28;20460;-70
2022/07/14 03:33:56;;;;;;;2.67;2.40;;;19.80;81.10;;;;;;4970547;28;20478;-71
2022/07/14 03:36:21;;;;;;;3.17;2.20;;;19.70;82.60;;;;;;4971749;28;20176;-74
2022/07/14 03:38:47;;;;;;;2.20;2.10;;;19.70;84.70;;;;;;4971586;28;20588;-70
2022/07/14 03:41:13;;;;;;;1.93;1.83;;;19.60;84.70;;;;;;4971420;28;20208;-68
2022/07/14 03:43:38;;;;;;;3.87;2.03;;;19.60;83.90;;;;;;4974209;28;20618;-68
2022/07/14 03:46:05;;;;;;;1.83;1.73;;;19.60;83.20;;;;;;4957516;28;20669;-72
2022/07/14 03:48:31;;;;;;;2.37;2.27;;;19.70;82.70;;;;;;4974818;28;20216;-68
2022/07/14 03:50:56;;;;;;;4.93;2.23;;;19.70;83.50;;;;;;4974830;28;20467;-69
2022/07/14 03:53:22;;;;;;;2.07;1.90;;;19.80;83.50;;;;;;4975069;28;20442;-69
2022/07/14 03:55:48;;;;;;;2.53;2.10;;;19.70;83.00;;;;;;4975576;28;20191;-68
2022/07/14 03:58:14;;;;;;;1.80;1.70;;;19.70;83.60;;;;;;4974074;28;20183;-68
2022/07/14 04:00:40;;;;;;;2.80;2.37;;;19.60;85.40;;;;;;4975130;28;20180;-69
2022/07/14 04:03:05;;;;;;;2.70;1.80;;;19.60;84.10;;;;;;4974849;28;20463;-68
2022/07/14 04:05:31;;;;;;;2.43;2.20;;;19.60;87.00;;;;;;4975323;28;20292;-68
2022/07/14 04:07:57;;;;;;;4.20;2.40;;;19.60;86.40;;;;;;4974541;28;20176;-68
2022/07/14 04:10:23;;;;;;;2.83;2.70;;;19.60;86.50;;;;;;4973571;28;20494;-68
2022/07/14 04:12:48;;;;;;;2.30;2.20;;;19.70;86.60;;;;;;4974774;28;20201;-68
2022/07/14 04:15:14;;;;;;;1.93;1.83;;;19.70;86.90;;;;;;4972880;28;20181;-68
2022/07/14 04:17:40;;;;;;;2.53;2.07;;;19.80;85.90;;;;;;4974632;28;20214;-68
2022/07/14 04:20:06;;;;;;;2.30;2.20;;;19.90;86.80;;;;;;4973117;28;20208;-68
2022/07/14 04:22:31;;;;;;;2.20;2.00;;;19.90;88.10;;;;;;4973850;28;20223;-68
2022/07/14 04:24:57;;;;;;;2.67;2.03;;;20.00;88.30;;;;;;4974901;28;20983;-68
2022/07/14 04:27:22;;;;;;;2.20;2.10;;;19.90;87.60;;;;;;4973234;28;20260;-67
2022/07/14 04:29:48;;;;;;;2.10;2.00;;;19.80;90.40;;;;;;4972930;28;20180;-68
2022/07/14 04:32:13;;;;;;;3.67;1.97;;;19.80;91.10;;;;;;4974017;28;20211;-68
2022/07/14 04:34:39;;;;;;;2.33;2.23;;;19.70;90.90;;;;;;4974253;28;20267;-68
2022/07/14 04:37:05;;;;;;;2.43;2.23;;;19.80;90.70;;;;;;4974279;28;20191;-68
2022/07/14 04:39:31;;;;;;;2.97;2.77;;;19.80;90.60;;;;;;4971885;28;20545;-68
2022/07/14 04:41:56;;;;;;;2.83;2.63;;;19.80;91.20;;;;;;4974434;28;20204;-68
2022/07/14 04:44:22;;;;;;;3.80;2.00;;;19.80;90.70;;;;;;4975958;28;20208;-68
2022/07/14 04:46:48;;;;;;;2.10;2.00;;;19.70;90.80;;;;;;4974548;28;20176;-68
2022/07/14 04:52:03;;;;;;;2.73;2.27;;;20.10;89.90;;;;;;4971889;28;20593;-68
2022/07/14 04:54:33;;;;;;;2.90;2.70;;;20.40;90.50;;;;;;4973136;28;20430;-68
2022/07/14 04:57:00;;;;;;;3.37;3.07;;;20.70;90.50;;;;;;4972647;28;20527;-68
2022/07/14 04:59:27;;;;;;;3.83;3.53;;;20.90;90.10;;;;;;4972778;28;20482;-68
2022/07/14 05:01:53;;;;;;;3.30;3.00;;;21.10;89.70;;;;;;4972672;28;20497;-68
2022/07/14 05:04:19;;;;;;;2.83;2.60;;;21.30;86.50;;;;;;4973422;28;20889;-68
2022/07/14 05:06:46;;;;;;;2.50;2.40;;;21.50;86.70;;;;;;4972963;28;20471;-68
2022/07/14 05:09:14;;;;;;;6.23;2.97;;;21.60;86.20;;;;;;4973495;28;20173;-69
2022/07/14 05:11:41;;;;;;;4.80;2.30;;;21.80;86.60;;;;;;4971227;28;20803;-70
2022/07/14 05:14:07;;;;;;;2.00;1.90;;;22.00;87.70;;;;;;4973724;28;20454;-68
2022/07/14 05:16:32;;;;;;;4.23;3.53;;;22.10;88.30;;;;;;4973536;28;20787;-70
2022/07/14 05:18:58;;;;;;;3.33;2.33;;;22.30;88.00;;;;;;4978108;28;20447;-69
2022/07/14 05:21:24;;;;;;;2.80;2.60;;;22.50;87.80;;;;;;4967872;28;20197;-69
2022/07/14 05:23:50;;;;;;;2.37;2.27;;;22.60;85.80;;;;;;4971256;28;20289;-68
2022/07/14 05:26:17;;;;;;;2.70;2.50;;;22.60;82.90;;;;;;4970649;28;20807;-68
2022/07/14 05:28:42;;;;;;;4.77;2.70;;;22.80;86.30;;;;;;4968567;28;20173;-68
2022/07/14 05:31:08;;;;;;;2.53;2.33;;;22.90;84.70;;;;;;4970894;28;20463;-68
2022/07/14 05:33:34;;;;;;;6.30;2.10;;;23.10;80.90;;;;;;4976198;28;20673;-69
2022/07/14 05:36:00;;;;;;;3.83;2.47;;;23.30;80.10;;;;;;4971622;28;20298;-67
2022/07/14 05:38:26;;;;;;;2.70;2.50;;;23.60;78.20;;;;;;4967023;28;20460;-68
2022/07/14 05:40:52;;;;;;;2.70;2.27;;;23.70;76.70;;;;;;4970177;28;20722;-69
2022/07/14 05:43:19;;;;;;;3.50;2.87;;;23.90;77.50;;;;;;4968304;28;20228;-69
2022/07/14 05:45:44;;;;;;;3.30;2.40;;;24.00;77.40;;;;;;4969953;28;20200;-69
2022/07/14 05:48:10;;;;;;;3.77;2.60;;;24.10;75.90;;;;;;4969814;28;20849;-69
2022/07/14 05:50:36;;;;;;;2.40;1.93;;;24.30;78.70;;;;;;4972365;28;20443;-69
2022/07/14 05:53:02;;;;;;;3.60;2.67;;;24.50;78.60;;;;;;4975928;28;20176;-69
2022/07/14 05:55:27;;;;;;;2.53;2.33;;;24.60;77.90;;;;;;4972827;28;20192;-69
2022/07/14 05:57:53;;;;;;;2.93;2.70;;;24.80;77.20;;;;;;4973971;28;20262;-67
2022/07/14 06:00:18;;;;;;;8.10;2.43;;;24.90;76.50;;;;;;4972332;28;20185;-67
2022/07/14 06:02:44;;;;;;;7.53;6.50;;;25.00;74.80;;;;;;4972856;28;20208;-67
2022/07/14 06:05:10;;;;;;;3.47;3.13;;;25.30;75.60;;;;;;4973018;28;20614;-67
2022/07/14 06:07:36;;;;;;;4.30;2.60;;;25.50;73.70;;;;;;4970669;28;20183;-67
2022/07/14 06:10:03;;;;;;;4.00;2.53;;;25.60;72.10;;;;;;4963678;28;20546;-67
2022/07/14 06:12:28;;;;;;;2.73;2.53;;;25.50;69.40;;;;;;4970663;28;20456;-67
2022/07/14 06:14:54;;;;;;;2.50;2.30;;;25.50;68.60;;;;;;4970635;28;20971;-68
2022/07/14 06:17:19;;;;;;;4.20;3.40;;;25.60;68.90;;;;;;4972480;28;20320;-66
2022/07/14 06:19:45;;;;;;;3.80;3.50;;;25.90;68.30;;;;;;4972839;28;20180;-68
2022/07/14 06:22:11;;;;;;;3.47;2.80;;;26.10;66.80;;;;;;4975465;28;20215;-66
2022/07/14 06:24:38;;;;;;;2.60;2.40;;;26.20;64.50;;;;;;4970924;28;20278;-67
2022/07/14 06:27:03;;;;;;;4.73;2.17;;;26.30;63.30;;;;;;4972434;28;20192;-66
2022/07/14 06:29:29;;;;;;;2.20;1.77;;;26.40;60.10;;;;;;4970882;28;20446;-66
2022/07/14 06:31:55;;;;;;;1.87;1.77;;;26.60;60.20;;;;;;4953038;28;20203;-66
2022/07/14 06:34:22;;;;;;;5.73;2.27;;;26.80;59.90;;;;;;4971842;28;20271;-67
2022/07/14 06:36:47;;;;;;;12.97;2.97;;;26.90;59.00;;;;;;4972744;28;20442;-67
2022/07/14 06:39:14;;;;;;;4.97;2.37;;;27.00;59.90;;;;;;4972357;28;20435;-67
2022/07/14 06:41:40;;;;;;;1.93;1.83;;;27.30;59.90;;;;;;4973124;28;20226;-67
2022/07/14 06:44:06;;;;;;;4.20;2.70;;;27.30;59.70;;;;;;4972993;28;20511;-67
2022/07/14 06:46:32;;;;;;;6.13;3.47;;;27.30;59.80;;;;;;4973168;28;20412;-67
2022/07/14 06:48:58;;;;;;;2.77;2.57;;;27.30;59.00;;;;;;4971486;28;20165;-67
2022/07/14 06:51:24;;;;;;;3.73;2.13;;;27.30;58.50;;;;;;4972799;28;20470;-67
2022/07/14 06:53:50;;;;;;;2.17;2.07;;;27.30;58.90;;;;;;4973069;28;20905;-67
2022/07/14 06:56:15;;;;;;;7.80;1.93;;;27.50;59.70;;;;;;4972988;28;20176;-67
2022/07/14 06:58:41;;;;;;;2.67;2.47;;;27.80;59.10;;;;;;4972230;28;20227;-67
2022/07/14 07:01:06;;;;;;;2.80;2.03;;;27.80;58.40;;;;;;4972914;28;20192;-67
2022/07/14 07:03:32;;;;;;;3.90;2.23;;;27.90;58.00;;;;;;4972817;28;20196;-67
2022/07/14 07:08:42;;;;;;;2.70;2.50;;;28.40;60.10;;;;;;4972304;28;20179;-67
2022/07/14 07:11:09;;;;;;;5.50;2.40;;;28.70;59.80;;;;;;4972725;28;20829;-67
2022/07/14 07:13:35;;;;;;;3.10;2.73;;;28.90;59.00;;;;;;4972749;28;20606;-67
2022/07/14 07:16:07;;;;;;;2.40;2.20;;;29.20;58.30;;;;;;4972791;28;20428;-67
2022/07/14 07:18:34;;;;;;;4.53;2.30;;;29.60;57.00;;;;;;4974206;28;20187;-67
2022/07/14 07:20:59;;;;;;;2.47;2.27;;;29.80;55.80;;;;;;4976662;28;20811;-67
2022/07/14 07:23:25;;;;;;;2.47;2.27;;;30.00;55.50;;;;;;4976612;28;20463;-67
2022/07/14 07:25:52;;;;;;;3.23;2.10;;;30.40;55.20;;;;;;4976753;28;20561;-67
2022/07/14 07:28:17;;;;;;;2.80;2.60;;;30.70;53.60;;;;;;4976043;28;20455;-67
2022/07/14 07:30:43;;;;;;;2.83;2.30;;;30.90;51.00;;;;;;4976713;28;20518;-67
2022/07/14 07:33:08;;;;;;;2.60;2.30;;;31.00;50.00;;;;;;4976732;28;20211;-68
2022/07/14 07:35:35;;;;;;;3.87;1.97;;;31.20;49.50;;;;;;4976795;28;20184;-67
2022/07/14 07:38:00;;;;;;;2.30;2.03;;;30.90;48.90;;;;;;4976538;28;20256;-67
2022/07/14 07:40:26;;;;;;;6.20;2.23;;;30.70;49.00;;;;;;4975864;28;20518;-67
2022/07/14 07:42:52;;;;;;;6.83;2.27;;;30.90;48.80;;;;;;4976440;28;20176;-67
2022/07/14 07:45:17;;;;;;;2.87;2.50;;;31.20;49.30;;;;;;4976493;28;20422;-67
2022/07/14 07:47:43;;;;;;;3.57;2.17;;;31.50;47.70;;;;;;4975230;28;20177;-67
2022/07/14 07:50:10;;;;;;;2.90;2.70;;;31.40;47.30;;;;;;4975562;28;20200;-67
2022/07/14 07:52:35;;;;;;;2.50;2.30;;;31.60;47.80;;;;;;4976039;28;20755;-67
2022/07/14 07:55:01;;;;;;;7.03;2.30;;;32.10;47.00;;;;;;4976150;28;20506;-67
2022/07/14 07:57:27;;;;;;;5.77;2.50;;;32.30;46.40;;;;;;4976169;28;20181;-67
2022/07/14 07:59:52;;;;;;;4.10;2.20;;;32.60;46.50;;;;;;4975303;28;20180;-67
2022/07/14 08:02:18;;;;;;;4.23;2.60;;;32.80;46.20;;;;;;4976033;28;20200;-68
2022/07/14 08:04:44;;;;;;;4.33;2.13;;;32.70;45.50;;;;;;4975842;28;20693;-67
2022/07/14 08:07:10;;;;;;;4.83;2.27;;;32.80;45.10;;;;;;4976009;28;20415;-67
2022/07/14 08:09:35;;;;;;;2.90;2.70;;;33.00;45.60;;;;;;4975261;28;20652;-67
2022/07/14 08:12:01;;;;;;;3.63;2.77;;;33.10;45.30;;;;;;4975829;28;20674;-67
2022/07/14 08:17:10;;;;;;;2.93;2.73;;;32.50;45.30;;;;;;4975855;28;20175;-67
2022/07/14 08:19:36;;;;;;;3.30;2.63;;;32.50;45.60;;;;;;4974953;28;20826;-67
2022/07/14 08:22:02;;;;;;;3.33;3.03;;;32.40;46.10;;;;;;4975548;28;20192;-68
2022/07/14 08:24:29;;;;;;;5.23;2.40;;;32.60;45.90;;;;;;4975604;28;20542;-67
2022/07/14 08:26:55;;;;;;;2.83;2.60;;;32.80;45.20;;;;;;4975593;28;20168;-68
2022/07/14 08:29:20;;;;;;;6.07;4.10;;;32.30;44.20;;;;;;4973762;28;20412;-67
2022/07/14 08:31:46;;;;;;;3.70;2.33;;;31.80;45.10;;;;;;4975511;28;20439;-67
2022/07/14 08:34:12;;;;;;;3.43;3.13;;;32.20;44.60;;;;;;4975440;28;20203;-67
2022/07/14 08:36:37;;;;;;;2.37;2.27;;;32.30;44.20;;;;;;4975392;28;20168;-67
2022/07/14 08:39:05;;;;;;;4.53;2.20;;;32.20;44.40;;;;;;4974728;28;20267;-68
2022/07/14 08:41:35;;;;;;;3.53;2.63;;;32.20;44.10;;;;;;4975302;28;20192;-67
2022/07/14 08:44:01;;;;;;;3.73;2.83;;;32.40;44.50;;;;;;4975328;28;20456;-67
2022/07/14 08:46:27;;;;;;;4.37;3.63;;;32.40;44.50;;;;;;4975249;28;20486;-67
2022/07/14 08:48:54;;;;;;;2.53;2.43;;;32.30;44.70;;;;;;4974465;28;20462;-67
2022/07/14 08:51:20;;;;;;;4.87;2.73;;;32.50;43.80;;;;;;4975297;28;20836;-67
2022/07/14 08:53:46;;;;;;;3.10;2.90;;;32.80;43.10;;;;;;4975144;28;20793;-67
2022/07/14 08:56:12;;;;;;;2.67;2.47;;;33.30;42.40;;;;;;4975118;28;20428;-67
2022/07/14 08:58:44;;;;;;;5.33;2.63;;;33.70;41.90;;;;;;4974415;28;20566;-67
2022/07/14 09:01:10;;;;;;;5.60;2.43;;;33.90;41.30;;;;;;4975094;28;20191;-68
2022/07/14 09:03:35;;;;;;;3.23;2.93;;;33.90;41.50;;;;;;4974909;28;20461;-68
2022/07/14 09:06:01;;;;;;;4.80;2.53;;;33.80;40.80;;;;;;4975079;28;20178;-68
2022/07/14 09:08:27;;;;;;;2.90;2.70;;;33.90;41.20;;;;;;4974224;28;20179;-67
2022/07/14 09:10:52;;;;;;;4.03;2.60;;;34.20;40.10;;;;;;4974799;28;20188;-67
2022/07/14 09:13:20;;;;;;;4.13;2.60;;;34.00;40.10;;;;;;4974902;28;20172;-68
2022/07/14 09:15:48;;;;;;;3.30;2.60;;;33.80;39.90;;;;;;4974778;28;20176;-65
2022/07/14 09:18:22;;;;;;;3.13;2.83;;;34.10;40.20;;;;;;4973836;28;20420;-68
2022/07/14 09:20:48;;;;;;;2.70;2.03;;;34.20;39.50;;;;;;4974575;28;20439;-68
2022/07/14 09:23:14;;;;;;;3.43;2.20;;;34.30;38.40;;;;;;4974476;28;20550;-67
2022/07/14 09:25:41;;;;;;;5.10;2.70;;;34.70;38.90;;;;;;4974525;28;20499;-67
2022/07/14 09:28:09;;;;;;;2.50;2.30;;;34.90;39.40;;;;;;4974361;28;20180;-68
2022/07/14 09:30:35;;;;;;;3.20;2.90;;;35.00;39.40;;;;;;4973843;28;20419;-66
2022/07/14 09:33:03;;;;;;;2.90;2.57;;;35.10;39.20;;;;;;4974385;28;20511;-65
2022/07/14 09:35:34;;;;;;;3.33;2.23;;;35.50;38.20;;;;;;4974533;28;20554;-66
2022/07/14 09:38:15;;;;;;;7.73;2.87;;;35.60;37.20;;;;;;4974197;28;20922;-65
2022/07/14 09:40:41;;;;;;;2.80;2.30;;;35.80;36.60;;;;;;4974095;28;20423;-66
2022/07/14 09:43:09;;;;;;;2.47;2.20;;;35.70;35.30;;;;;;4974158;28;20444;-66
2022/07/14 09:45:43;;;;;;;2.80;2.10;;;35.80;35.10;;;;;;4974139;28;20456;-65
2022/07/14 09:48:09;;;;;;;2.40;2.17;;;35.70;35.50;;;;;;4973801;28;20491;-66
2022/07/14 09:50:37;;;;;;;2.97;2.40;;;36.30;35.20;;;;;;4956195;28;21009;-67
2022/07/14 09:53:19;;;;;;;3.00;2.50;;;36.50;35.10;;;;;;4974517;28;20957;-67
2022/07/14 09:56:00;;;;;;;4.00;2.00;;;37.00;34.50;;;;;;4974047;28;20431;-67
2022/07/14 09:58:55;;;;;;;3.53;2.00;;;37.30;33.50;;;;;;4973195;28;20428;-66
2022/07/14 10:01:23;;;;;;;2.33;2.20;;;36.80;34.00;;;;;;4973884;28;20538;-67
2022/07/14 10:03:51;;;;;;;2.00;1.90;;;36.30;33.70;;;;;;4973780;28;20455;-68
2022/07/14 10:06:17;;;;;;;2.23;2.00;;;35.90;34.20;;;;;;4973791;28;20493;-66
2022/07/14 10:08:46;;;;;;;3.90;2.73;;;35.90;33.60;;;;;;4973092;28;20427;-67
2022/07/14 10:11:12;;;;;;;2.53;2.40;;;36.30;32.50;;;;;;4973458;28;20447;-66
2022/07/14 10:13:38;;;;;;;3.00;2.30;;;37.40;31.90;;;;;;4973713;28;20764;-67
2022/07/14 10:16:05;;;;;;;2.00;1.80;;;38.00;31.20;;;;;;4973535;28;20424;-68
2022/07/14 10:18:32;;;;;;;5.17;2.20;;;39.20;30.30;;;;;;4972789;28;20426;-67
2022/07/14 10:21:00;;;;;;;2.40;2.30;;;39.60;30.30;;;;;;4973522;28;20881;-66
2022/07/14 10:23:27;;;;;;;3.50;2.93;;;39.50;30.30;;;;;;4973459;28;20980;-67
2022/07/14 10:25:56;;;;;;;2.83;2.50;;;39.00;30.80;;;;;;4973393;28;20435;-68
2022/07/14 10:28:22;;;;;;;3.80;2.60;;;39.40;30.00;;;;;;4972751;28;20802;-68
2022/07/14 10:31:15;;;;;;;3.80;2.50;;;39.70;30.00;;;;;;4973498;28;20431;-67
2022/07/14 10:34:00;;;;;;;3.20;2.90;;;39.40;29.80;;;;;;4973375;28;20267;-67
2022/07/14 10:36:47;;;;;;;4.50;2.60;;;39.70;29.20;;;;;;4973450;28;20411;-67
2022/07/14 10:39:28;;;;;;;2.50;2.30;;;40.40;29.10;;;;;;4972846;28;20822;-67
2022/07/14 10:42:14;;;;;;;2.57;2.47;;;40.50;28.80;;;;;;4973507;28;20846;-67
2022/07/14 10:44:45;;;;;;;2.77;1.70;;;41.10;27.90;;;;;;4973321;28;20466;-67
2022/07/14 10:47:13;;;;;;;6.10;2.53;;;40.80;28.20;;;;;;4973271;28;20960;-68
2022/07/14 10:50:02;;;;;;;2.23;2.13;;;40.30;27.90;;;;;;4972381;28;20455;-67
2022/07/14 10:52:30;;;;;;;2.63;2.43;;;39.70;28.30;;;;;;4972415;28;20455;-67
2022/07/14 10:55:25;;;;;;;2.60;2.27;;;40.30;28.80;;;;;;4973065;28;20419;-67
2022/07/14 10:57:59;;;;;;;2.83;2.60;;;41.30;27.80;;;;;;4964207;28;20435;-68
2022/07/14 11:00:55;;;;;;;2.20;2.10;;;41.80;26.90;;;;;;4972404;28;20415;-68
2022/07/14 11:03:32;;;;;;;2.50;2.30;;;42.30;26.80;;;;;;4972938;28;20538;-67
2022/07/14 11:06:03;;;;;;;2.20;2.10;;;43.40;26.80;;;;;;4973173;28;20867;-68
2022/07/14 11:08:30;;;;;;;2.20;2.00;;;44.80;26.00;;;;;;4972359;28;20434;-67
2022/07/14 11:10:58;;;;;;;2.50;2.20;;;45.40;25.80;;;;;;4973047;28;20439;-68
2022/07/14 11:13:24;;;;;;;3.50;2.60;;;46.40;25.20;;;;;;4973254;28;20937;-68
2022/07/14 11:15:59;;;;;;;5.03;3.13;;;46.30;24.90;;;;;;4972907;28;20423;-68
2022/07/14 11:18:27;;;;;;;2.80;2.60;;;46.90;24.30;;;;;;4972273;28;20949;-67
2022/07/14 11:21:16;;;;;;;3.87;2.57;;;46.60;23.90;;;;;;4972910;28;20443;-67
2022/07/14 11:23:54;;;;;;;4.63;4.33;;;46.70;24.90;;;;;;4972870;28;20525;-68
2022/07/14 11:26:44;;;;;;;3.20;3.10;;;47.00;24.40;;;;;;4973085;28;20448;-68
2022/07/14 11:29:11;;;;;;;3.80;3.37;;;47.10;24.70;;;;;;4972207;28;20975;-68
2022/07/14 11:31:48;;;;;;;3.50;3.20;;;47.30;25.00;;;;;;4972793;28;20869;-68
2022/07/14 11:37:10;;;;;;;4.33;2.87;;;46.80;24.30;;;;;;4973196;28;20474;-67
2022/07/14 11:39:37;;;;;;;6.30;3.00;;;46.80;24.50;;;;;;4972095;28;20511;-68
2022/07/14 11:42:13;;;;;;;3.10;2.90;;;47.20;24.50;;;;;;4972734;28;20525;-67
2022/07/14 11:44:38;;;;;;;3.00;2.90;;;47.80;24.00;;;;;;4972684;28;20490;-68
2022/07/14 11:47:19;;;;;;;2.80;2.60;;;46.30;23.80;;;;;;4972828;28;20446;-67
2022/07/14 11:50:08;;;;;;;3.67;3.47;;;47.10;23.90;;;;;;4971940;28;20176;-69
2022/07/14 11:52:37;;;;;;;3.20;3.00;;;47.80;23.30;;;;;;4972624;28;20851;-68
2022/07/14 11:55:06;;;;;;;3.10;3.00;;;46.50;23.50;;;;;;4972664;28;20423;-68
2022/07/14 11:57:32;;;;;;;3.50;3.30;;;48.00;23.40;;;;;;4972766;28;20424;-68
2022/07/14 12:00:09;;;;;;;3.30;3.00;;;48.50;23.00;;;;;;4971915;28;20921;-67
2022/07/14 12:02:50;;;;;;;3.47;3.17;;;48.80;23.10;;;;;;4972621;28;20196;-68
2022/07/14 12:05:15;;;;;;;3.00;2.90;;;49.60;23.40;;;;;;4975825;28;20451;-68
2022/07/14 12:07:45;;;;;;;4.03;3.00;;;47.80;23.40;;;;;;4976149;28;20431;-68
2022/07/14 12:10:13;;;;;;;2.87;2.70;;;47.20;23.00;;;;;;4975341;28;20176;-68
2022/07/14 12:12:47;;;;;;;2.93;2.73;;;48.10;23.50;;;;;;4976040;28;20534;-67
2022/07/14 12:15:23;;;;;;;2.90;2.70;;;48.10;23.60;;;;;;4976006;28;20434;-68
2022/07/14 12:17:51;;;;;;;3.47;3.17;;;47.20;23.60;;;;;;4975848;28;20422;-68
2022/07/14 12:20:17;;;;;;;3.27;2.97;;;46.60;23.40;;;;;;4975157;28;20427;-67
2022/07/14 12:22:44;;;;;;;2.90;2.70;;;47.80;23.70;;;;;;4975601;28;20463;-68
2022/07/14 12:25:32;;;;;;;4.20;2.80;;;48.90;23.10;;;;;;4974385;28;20819;-68
2022/07/14 12:27:59;;;;;;;2.50;2.40;;;48.00;23.30;;;;;;4975467;28;20431;-68
2022/07/14 12:30:48;;;;;;;3.30;3.10;;;49.20;22.80;;;;;;4974799;28;20427;-68
2022/07/14 12:33:17;;;;;;;5.03;3.90;;;49.70;22.70;;;;;;4975574;28;20423;-68
2022/07/14 12:35:44;;;;;;;3.67;3.47;;;49.80;22.40;;;;;;4975554;28;20426;-68
2022/07/14 12:38:11;;;;;;;4.10;3.60;;;48.80;22.70;;;;;;4975029;28;20432;-66
2022/07/14 12:40:38;;;;;;;3.73;3.20;;;48.90;22.70;;;;;;4975288;28;20498;-67
2022/07/14 12:43:04;;;;;;;3.47;3.27;;;48.10;22.70;;;;;;4975286;28;20846;-68
2022/07/14 12:45:30;;;;;;;4.10;2.30;;;46.80;23.30;;;;;;4975264;28;20427;-68
2022/07/14 12:48:00;;;;;;;3.00;2.80;;;46.50;23.70;;;;;;4975287;28;20412;-68
2022/07/14 12:50:28;;;;;;;2.30;2.20;;;44.10;23.70;;;;;;4974347;28;20419;-67
2022/07/14 12:52:56;;;;;;;2.73;2.50;;;42.10;25.00;;;;;;4975232;28;20424;-68
2022/07/14 12:55:36;;;;;;;5.27;3.20;;;41.60;25.60;;;;;;4975224;28;20450;-67
2022/07/14 12:58:04;;;;;;;2.70;2.50;;;40.10;26.10;;;;;;4975041;28;20423;-67
2022/07/14 13:00:31;;;;;;;3.37;2.50;;;39.80;26.30;;;;;;4974440;28;20423;-67
2022/07/14 13:03:10;;;;;;;2.40;2.03;;;39.60;26.50;;;;;;4974991;28;20422;-67
2022/07/14 13:06:06;;;;;;;4.63;2.57;;;39.30;26.80;;;;;;4974878;28;20948;-67
2022/07/14 13:08:37;;;;;;;4.83;2.73;;;38.70;27.10;;;;;;4965474;28;20447;-68